sensor_id;sensor_type;location;lat;lon;timestamp;P1;durP1;ratioP1;P2;durP2;ratioP2
18732;SDS011;9495;51.210;2.934;2023-07-22T00:00:57;28.65;;;14.85;;
18732;SDS011;9495;51.210;2.934;2023-07-22T00:03:25;28.10;;;15.70;;
18732;SDS011;9495;51.210;2.934;2023-07-22T00:06:04;25.73;;;15.15;;
18732;SDS011;9495;51.210;2.934;2023-07-22T00:08:33;26.17;;;14.40;;
18732;SDS011;9495;51.210;2.934;2023-07-22T00:11:03;23.95;;;14.57;;
18732;SDS011;9495;51.210;2.934;2023-07-22T00:13:33;31.75;;;15.25;;
18732;SDS011;9495;51.210;2.934;2023-07-22T00:16:03;30.83;;;16.00;;
18732;SDS011;9495;51.210;2.934;2023-07-22T00:18:31;32.15;;;16.02;;
18732;SDS011;9495;51.210;2.934;2023-07-22T00:21:00;23.98;;;15.45;;
18732;SDS011;9495;51.210;2.934;2023-07-22T00:23:28;27.30;;;14.95;;
18732;SDS011;9495;51.210;2.934;2023-07-22T00:25:57;30.25;;;16.00;;
18732;SDS011;9495;51.210;2.934;2023-07-22T00:28:26;25.98;;;14.77;;
18732;SDS011;9495;51.210;2.934;2023-07-22T00:30:55;30.50;;;16.38;;
18732;SDS011;9495;51.210;2.934;2023-07-22T00:33:25;30.30;;;15.68;;
18732;SDS011;9495;51.210;2.934;2023-07-22T00:35:54;30.50;;;16.05;;
18732;SDS011;9495;51.210;2.934;2023-07-22T00:38:22;30.08;;;16.08;;
18732;SDS011;9495;51.210;2.934;2023-07-22T00:40:51;29.50;;;14.80;;
18732;SDS011;9495;51.210;2.934;2023-07-22T00:43:20;27.10;;;16.02;;
18732;SDS011;9495;51.210;2.934;2023-07-22T00:45:48;29.33;;;15.75;;
18732;SDS011;9495;51.210;2.934;2023-07-22T00:48:18;30.67;;;16.00;;
18732;SDS011;9495;51.210;2.934;2023-07-22T00:50:48;30.63;;;16.30;;
18732;SDS011;9495;51.210;2.934;2023-07-22T00:53:17;26.15;;;14.85;;
18732;SDS011;9495;51.210;2.934;2023-07-22T00:55:46;28.83;;;15.77;;
18732;SDS011;9495;51.210;2.934;2023-07-22T00:58:14;29.40;;;15.40;;
18732;SDS011;9495;51.210;2.934;2023-07-22T01:00:43;31.85;;;15.70;;
18732;SDS011;9495;51.210;2.934;2023-07-22T01:03:11;26.67;;;14.98;;
18732;SDS011;9495;51.210;2.934;2023-07-22T01:05:42;27.67;;;15.35;;
18732;SDS011;9495;51.210;2.934;2023-07-22T01:08:11;35.63;;;16.02;;
18732;SDS011;9495;51.210;2.934;2023-07-22T01:10:40;32.65;;;16.02;;
18732;SDS011;9495;51.210;2.934;2023-07-22T01:13:09;35.00;;;16.42;;
18732;SDS011;9495;51.210;2.934;2023-07-22T01:15:37;24.60;;;15.85;;
18732;SDS011;9495;51.210;2.934;2023-07-22T01:18:06;27.58;;;15.43;;
18732;SDS011;9495;51.210;2.934;2023-07-22T01:20:36;25.35;;;15.65;;
18732;SDS011;9495;51.210;2.934;2023-07-22T01:23:06;27.63;;;15.43;;
18732;SDS011;9495;51.210;2.934;2023-07-22T01:25:35;32.45;;;16.48;;
18732;SDS011;9495;51.210;2.934;2023-07-22T01:28:04;34.67;;;16.42;;
18732;SDS011;9495;51.210;2.934;2023-07-22T01:30:37;30.88;;;15.23;;
18732;SDS011;9495;51.210;2.934;2023-07-22T01:33:06;30.75;;;16.30;;
18732;SDS011;9495;51.210;2.934;2023-07-22T01:35:35;38.67;;;17.23;;
18732;SDS011;9495;51.210;2.934;2023-07-22T01:38:03;30.63;;;16.10;;
18732;SDS011;9495;51.210;2.934;2023-07-22T01:40:33;31.55;;;16.20;;
18732;SDS011;9495;51.210;2.934;2023-07-22T01:43:02;33.90;;;17.20;;
18732;SDS011;9495;51.210;2.934;2023-07-22T01:45:31;33.83;;;16.58;;
18732;SDS011;9495;51.210;2.934;2023-07-22T01:47:59;31.63;;;17.00;;
18732;SDS011;9495;51.210;2.934;2023-07-22T01:50:28;37.35;;;18.08;;
18732;SDS011;9495;51.210;2.934;2023-07-22T01:52:57;32.92;;;18.58;;
18732;SDS011;9495;51.210;2.934;2023-07-22T01:55:25;26.80;;;17.15;;
18732;SDS011;9495;51.210;2.934;2023-07-22T01:57:55;33.58;;;16.95;;
18732;SDS011;9495;51.210;2.934;2023-07-22T02:00:23;37.63;;;17.95;;
18732;SDS011;9495;51.210;2.934;2023-07-22T02:02:53;30.42;;;16.50;;
18732;SDS011;9495;51.210;2.934;2023-07-22T02:05:22;35.42;;;18.60;;
18732;SDS011;9495;51.210;2.934;2023-07-22T02:07:51;30.13;;;17.03;;
18732;SDS011;9495;51.210;2.934;2023-07-22T02:10:21;33.20;;;17.25;;
18732;SDS011;9495;51.210;2.934;2023-07-22T02:12:50;35.78;;;18.25;;
18732;SDS011;9495;51.210;2.934;2023-07-22T02:15:20;33.13;;;18.27;;
18732;SDS011;9495;51.210;2.934;2023-07-22T02:17:51;35.85;;;18.50;;
18732;SDS011;9495;51.210;2.934;2023-07-22T02:20:22;33.42;;;19.00;;
18732;SDS011;9495;51.210;2.934;2023-07-22T02:22:50;47.10;;;20.23;;
18732;SDS011;9495;51.210;2.934;2023-07-22T02:25:19;41.05;;;19.80;;
18732;SDS011;9495;51.210;2.934;2023-07-22T02:27:47;37.33;;;19.58;;
18732;SDS011;9495;51.210;2.934;2023-07-22T02:30:17;36.27;;;19.07;;
18732;SDS011;9495;51.210;2.934;2023-07-22T02:32:47;34.92;;;18.95;;
18732;SDS011;9495;51.210;2.934;2023-07-22T02:35:16;38.33;;;19.70;;
18732;SDS011;9495;51.210;2.934;2023-07-22T02:37:44;39.10;;;19.30;;
18732;SDS011;9495;51.210;2.934;2023-07-22T02:40:13;36.92;;;20.05;;
18732;SDS011;9495;51.210;2.934;2023-07-22T02:42:42;40.42;;;21.30;;
18732;SDS011;9495;51.210;2.934;2023-07-22T02:45:10;35.13;;;20.02;;
18732;SDS011;9495;51.210;2.934;2023-07-22T02:47:39;39.22;;;21.10;;
18732;SDS011;9495;51.210;2.934;2023-07-22T02:50:09;35.75;;;19.73;;
18732;SDS011;9495;51.210;2.934;2023-07-22T02:52:38;35.63;;;20.17;;
18732;SDS011;9495;51.210;2.934;2023-07-22T02:55:08;41.38;;;20.17;;
18732;SDS011;9495;51.210;2.934;2023-07-22T02:57:38;35.40;;;20.77;;
18732;SDS011;9495;51.210;2.934;2023-07-22T03:00:07;38.03;;;21.57;;
18732;SDS011;9495;51.210;2.934;2023-07-22T03:02:38;43.47;;;22.60;;
18732;SDS011;9495;51.210;2.934;2023-07-22T03:05:07;43.07;;;22.00;;
18732;SDS011;9495;51.210;2.934;2023-07-22T03:07:37;36.33;;;21.87;;
18732;SDS011;9495;51.210;2.934;2023-07-22T03:10:06;36.60;;;21.20;;
18732;SDS011;9495;51.210;2.934;2023-07-22T03:12:36;45.23;;;22.33;;
18732;SDS011;9495;51.210;2.934;2023-07-22T03:15:05;43.83;;;22.65;;
18732;SDS011;9495;51.210;2.934;2023-07-22T03:17:36;46.57;;;21.27;;
18732;SDS011;9495;51.210;2.934;2023-07-22T03:20:05;37.93;;;20.80;;
18732;SDS011;9495;51.210;2.934;2023-07-22T03:22:41;38.90;;;21.13;;
18732;SDS011;9495;51.210;2.934;2023-07-22T03:25:10;40.58;;;20.48;;
18732;SDS011;9495;51.210;2.934;2023-07-22T03:27:39;38.17;;;20.83;;
18732;SDS011;9495;51.210;2.934;2023-07-22T03:30:11;40.03;;;20.47;;
18732;SDS011;9495;51.210;2.934;2023-07-22T03:32:41;43.13;;;19.52;;
18732;SDS011;9495;51.210;2.934;2023-07-22T03:35:10;37.03;;;19.60;;
18732;SDS011;9495;51.210;2.934;2023-07-22T03:37:40;37.30;;;20.20;;
18732;SDS011;9495;51.210;2.934;2023-07-22T03:40:10;40.20;;;20.20;;
18732;SDS011;9495;51.210;2.934;2023-07-22T03:42:44;41.28;;;21.15;;
18732;SDS011;9495;51.210;2.934;2023-07-22T03:45:13;39.67;;;19.80;;
18732;SDS011;9495;51.210;2.934;2023-07-22T03:47:43;41.17;;;20.33;;
18732;SDS011;9495;51.210;2.934;2023-07-22T03:50:12;42.47;;;20.20;;
18732;SDS011;9495;51.210;2.934;2023-07-22T03:52:43;40.27;;;20.20;;
18732;SDS011;9495;51.210;2.934;2023-07-22T03:55:11;38.03;;;19.70;;
18732;SDS011;9495;51.210;2.934;2023-07-22T03:57:40;37.57;;;19.87;;
18732;SDS011;9495;51.210;2.934;2023-07-22T04:00:09;37.60;;;18.83;;
18732;SDS011;9495;51.210;2.934;2023-07-22T04:02:37;41.77;;;20.27;;
18732;SDS011;9495;51.210;2.934;2023-07-22T04:05:06;40.27;;;18.83;;
18732;SDS011;9495;51.210;2.934;2023-07-22T04:07:35;40.37;;;18.70;;
18732;SDS011;9495;51.210;2.934;2023-07-22T04:10:05;33.95;;;19.63;;
18732;SDS011;9495;51.210;2.934;2023-07-22T04:12:36;39.20;;;18.83;;
18732;SDS011;9495;51.210;2.934;2023-07-22T04:15:08;32.50;;;18.47;;
18732;SDS011;9495;51.210;2.934;2023-07-22T04:17:38;35.83;;;19.03;;
18732;SDS011;9495;51.210;2.934;2023-07-22T04:20:07;35.87;;;18.37;;
18732;SDS011;9495;51.210;2.934;2023-07-22T04:22:36;32.30;;;18.30;;
18732;SDS011;9495;51.210;2.934;2023-07-22T04:25:07;35.00;;;17.53;;
18732;SDS011;9495;51.210;2.934;2023-07-22T04:27:36;36.37;;;17.40;;
18732;SDS011;9495;51.210;2.934;2023-07-22T04:30:05;34.63;;;18.20;;
18732;SDS011;9495;51.210;2.934;2023-07-22T04:32:34;37.00;;;16.37;;
18732;SDS011;9495;51.210;2.934;2023-07-22T04:35:03;36.00;;;16.37;;
18732;SDS011;9495;51.210;2.934;2023-07-22T04:37:33;33.53;;;17.03;;
18732;SDS011;9495;51.210;2.934;2023-07-22T04:40:01;27.57;;;17.47;;
18732;SDS011;9495;51.210;2.934;2023-07-22T04:42:33;33.87;;;16.20;;
18732;SDS011;9495;51.210;2.934;2023-07-22T04:45:02;30.43;;;15.73;;
18732;SDS011;9495;51.210;2.934;2023-07-22T04:47:31;33.80;;;17.00;;
18732;SDS011;9495;51.210;2.934;2023-07-22T04:49:59;32.88;;;15.90;;
18732;SDS011;9495;51.210;2.934;2023-07-22T04:52:28;31.63;;;17.42;;
18732;SDS011;9495;51.210;2.934;2023-07-22T04:54:56;33.60;;;17.30;;
18732;SDS011;9495;51.210;2.934;2023-07-22T04:57:25;29.57;;;16.40;;
18732;SDS011;9495;51.210;2.934;2023-07-22T04:59:55;32.70;;;16.45;;
18732;SDS011;9495;51.210;2.934;2023-07-22T05:02:23;26.80;;;15.70;;
18732;SDS011;9495;51.210;2.934;2023-07-22T05:04:52;35.10;;;16.63;;
18732;SDS011;9495;51.210;2.934;2023-07-22T05:07:21;25.20;;;15.77;;
18732;SDS011;9495;51.210;2.934;2023-07-22T05:09:49;32.30;;;15.87;;
18732;SDS011;9495;51.210;2.934;2023-07-22T05:12:18;29.25;;;15.48;;
18732;SDS011;9495;51.210;2.934;2023-07-22T05:14:48;26.58;;;15.95;;
18732;SDS011;9495;51.210;2.934;2023-07-22T05:17:17;29.77;;;14.85;;
18732;SDS011;9495;51.210;2.934;2023-07-22T05:19:46;30.07;;;15.17;;
18732;SDS011;9495;51.210;2.934;2023-07-22T05:22:16;35.47;;;15.73;;
18732;SDS011;9495;51.210;2.934;2023-07-22T05:24:44;32.23;;;15.77;;
18732;SDS011;9495;51.210;2.934;2023-07-22T05:27:13;31.37;;;15.33;;
18732;SDS011;9495;51.210;2.934;2023-07-22T05:29:42;24.77;;;15.00;;
18732;SDS011;9495;51.210;2.934;2023-07-22T05:32:11;33.28;;;14.88;;
18732;SDS011;9495;51.210;2.934;2023-07-22T05:34:59;31.20;;;15.10;;
18732;SDS011;9495;51.210;2.934;2023-07-22T05:37:30;30.40;;;14.30;;
18732;SDS011;9495;51.210;2.934;2023-07-22T05:39:59;32.45;;;15.63;;
18732;SDS011;9495;51.210;2.934;2023-07-22T05:42:28;34.50;;;15.00;;
18732;SDS011;9495;51.210;2.934;2023-07-22T05:44:57;29.23;;;13.82;;
18732;SDS011;9495;51.210;2.934;2023-07-22T05:47:26;30.33;;;14.03;;
18732;SDS011;9495;51.210;2.934;2023-07-22T05:49:54;28.00;;;13.33;;
18732;SDS011;9495;51.210;2.934;2023-07-22T05:52:24;32.57;;;14.80;;
18732;SDS011;9495;51.210;2.934;2023-07-22T05:54:53;28.50;;;13.10;;
18732;SDS011;9495;51.210;2.934;2023-07-22T05:57:22;33.13;;;13.40;;
18732;SDS011;9495;51.210;2.934;2023-07-22T05:59:50;30.73;;;13.45;;
18732;SDS011;9495;51.210;2.934;2023-07-22T06:02:33;25.83;;;12.50;;
18732;SDS011;9495;51.210;2.934;2023-07-22T06:05:02;20.98;;;12.75;;
18732;SDS011;9495;51.210;2.934;2023-07-22T06:07:32;27.40;;;11.95;;
18732;SDS011;9495;51.210;2.934;2023-07-22T06:10:00;25.58;;;12.40;;
18732;SDS011;9495;51.210;2.934;2023-07-22T06:12:29;26.05;;;12.95;;
18732;SDS011;9495;51.210;2.934;2023-07-22T06:14:57;27.92;;;12.95;;
18732;SDS011;9495;51.210;2.934;2023-07-22T06:17:26;28.08;;;11.93;;
18732;SDS011;9495;51.210;2.934;2023-07-22T06:19:55;28.23;;;12.57;;
18732;SDS011;9495;51.210;2.934;2023-07-22T06:22:24;28.33;;;11.07;;
18732;SDS011;9495;51.210;2.934;2023-07-22T06:24:54;25.58;;;11.40;;
18732;SDS011;9495;51.210;2.934;2023-07-22T06:27:23;25.88;;;10.48;;
18732;SDS011;9495;51.210;2.934;2023-07-22T06:29:51;24.23;;;10.20;;
18732;SDS011;9495;51.210;2.934;2023-07-22T06:32:20;21.48;;;9.65;;
18732;SDS011;9495;51.210;2.934;2023-07-22T06:34:49;24.77;;;9.60;;
18732;SDS011;9495;51.210;2.934;2023-07-22T06:37:17;21.27;;;8.98;;
18732;SDS011;9495;51.210;2.934;2023-07-22T06:39:45;18.58;;;8.60;;
18732;SDS011;9495;51.210;2.934;2023-07-22T06:42:15;19.23;;;9.18;;
18732;SDS011;9495;51.210;2.934;2023-07-22T06:44:43;18.75;;;8.15;;
18732;SDS011;9495;51.210;2.934;2023-07-22T06:47:12;18.13;;;8.90;;
18732;SDS011;9495;51.210;2.934;2023-07-22T06:49:41;21.45;;;8.23;;
18732;SDS011;9495;51.210;2.934;2023-07-22T06:52:13;16.23;;;8.13;;
18732;SDS011;9495;51.210;2.934;2023-07-22T06:54:41;21.27;;;8.15;;
18732;SDS011;9495;51.210;2.934;2023-07-22T06:57:10;20.95;;;7.60;;
18732;SDS011;9495;51.210;2.934;2023-07-22T06:59:39;20.30;;;8.55;;
18732;SDS011;9495;51.210;2.934;2023-07-22T07:02:08;16.63;;;7.45;;
18732;SDS011;9495;51.210;2.934;2023-07-22T07:04:36;18.77;;;8.75;;
18732;SDS011;9495;51.210;2.934;2023-07-22T07:07:05;16.98;;;7.88;;
18732;SDS011;9495;51.210;2.934;2023-07-22T07:09:34;17.60;;;9.07;;
18732;SDS011;9495;51.210;2.934;2023-07-22T07:12:03;19.35;;;8.13;;
18732;SDS011;9495;51.210;2.934;2023-07-22T07:14:32;20.55;;;8.65;;
18732;SDS011;9495;51.210;2.934;2023-07-22T07:17:02;16.80;;;8.15;;
18732;SDS011;9495;51.210;2.934;2023-07-22T07:19:31;15.77;;;7.38;;
18732;SDS011;9495;51.210;2.934;2023-07-22T07:22:00;15.27;;;7.57;;
18732;SDS011;9495;51.210;2.934;2023-07-22T07:24:29;18.00;;;8.00;;
18732;SDS011;9495;51.210;2.934;2023-07-22T07:26:57;20.25;;;6.78;;
18732;SDS011;9495;51.210;2.934;2023-07-22T07:29:26;14.90;;;6.65;;
18732;SDS011;9495;51.210;2.934;2023-07-22T07:32:15;18.75;;;6.93;;
18732;SDS011;9495;51.210;2.934;2023-07-22T07:34:44;14.88;;;6.85;;
18732;SDS011;9495;51.210;2.934;2023-07-22T07:37:13;16.83;;;6.18;;
18732;SDS011;9495;51.210;2.934;2023-07-22T07:39:41;15.55;;;6.00;;
18732;SDS011;9495;51.210;2.934;2023-07-22T07:42:10;13.93;;;5.85;;
18732;SDS011;9495;51.210;2.934;2023-07-22T07:44:38;12.18;;;5.82;;
18732;SDS011;9495;51.210;2.934;2023-07-22T07:47:07;17.45;;;5.88;;
18732;SDS011;9495;51.210;2.934;2023-07-22T07:49:37;11.20;;;4.70;;
18732;SDS011;9495;51.210;2.934;2023-07-22T07:52:06;9.68;;;4.80;;
18732;SDS011;9495;51.210;2.934;2023-07-22T07:54:35;9.73;;;5.07;;
18732;SDS011;9495;51.210;2.934;2023-07-22T07:57:04;11.75;;;4.95;;
18732;SDS011;9495;51.210;2.934;2023-07-22T07:59:32;11.13;;;5.05;;
18732;SDS011;9495;51.210;2.934;2023-07-22T08:02:04;13.45;;;4.80;;
18732;SDS011;9495;51.210;2.934;2023-07-22T08:04:37;11.82;;;5.38;;
18732;SDS011;9495;51.210;2.934;2023-07-22T08:07:05;13.30;;;5.68;;
18732;SDS011;9495;51.210;2.934;2023-07-22T08:09:35;17.55;;;5.30;;
18732;SDS011;9495;51.210;2.934;2023-07-22T08:12:04;14.80;;;5.28;;
18732;SDS011;9495;51.210;2.934;2023-07-22T08:14:32;12.32;;;4.60;;
18732;SDS011;9495;51.210;2.934;2023-07-22T08:17:02;10.63;;;5.32;;
18732;SDS011;9495;51.210;2.934;2023-07-22T08:19:31;11.73;;;4.80;;
18732;SDS011;9495;51.210;2.934;2023-07-22T08:22:00;12.25;;;4.70;;
18732;SDS011;9495;51.210;2.934;2023-07-22T08:24:29;11.02;;;4.63;;
18732;SDS011;9495;51.210;2.934;2023-07-22T08:26:58;12.35;;;4.70;;
18732;SDS011;9495;51.210;2.934;2023-07-22T08:29:26;11.23;;;4.18;;
18732;SDS011;9495;51.210;2.934;2023-07-22T08:31:55;8.68;;;4.05;;
18732;SDS011;9495;51.210;2.934;2023-07-22T08:34:24;9.85;;;3.50;;
18732;SDS011;9495;51.210;2.934;2023-07-22T08:36:52;11.20;;;3.72;;
18732;SDS011;9495;51.210;2.934;2023-07-22T08:39:22;10.75;;;3.80;;
18732;SDS011;9495;51.210;2.934;2023-07-22T08:41:50;12.18;;;3.10;;
18732;SDS011;9495;51.210;2.934;2023-07-22T08:44:21;7.05;;;3.17;;
18732;SDS011;9495;51.210;2.934;2023-07-22T08:46:53;7.78;;;3.13;;
18732;SDS011;9495;51.210;2.934;2023-07-22T08:49:26;9.02;;;3.20;;
18732;SDS011;9495;51.210;2.934;2023-07-22T08:51:57;12.30;;;3.63;;
18732;SDS011;9495;51.210;2.934;2023-07-22T08:54:29;10.82;;;4.00;;
18732;SDS011;9495;51.210;2.934;2023-07-22T08:56:58;8.00;;;3.30;;
18732;SDS011;9495;51.210;2.934;2023-07-22T08:59:26;8.35;;;3.65;;
18732;SDS011;9495;51.210;2.934;2023-07-22T09:01:56;6.20;;;3.33;;
18732;SDS011;9495;51.210;2.934;2023-07-22T09:04:25;5.78;;;3.50;;
18732;SDS011;9495;51.210;2.934;2023-07-22T09:06:53;10.85;;;4.47;;
18732;SDS011;9495;51.210;2.934;2023-07-22T09:09:23;7.32;;;3.90;;
18732;SDS011;9495;51.210;2.934;2023-07-22T09:11:54;9.32;;;4.13;;
18732;SDS011;9495;51.210;2.934;2023-07-22T09:14:22;10.85;;;4.38;;
18732;SDS011;9495;51.210;2.934;2023-07-22T09:17:02;8.57;;;4.10;;
18732;SDS011;9495;51.210;2.934;2023-07-22T09:19:31;10.68;;;4.20;;
18732;SDS011;9495;51.210;2.934;2023-07-22T09:21:59;7.25;;;3.88;;
18732;SDS011;9495;51.210;2.934;2023-07-22T09:24:28;8.32;;;4.10;;
18732;SDS011;9495;51.210;2.934;2023-07-22T09:26:58;9.93;;;4.05;;
18732;SDS011;9495;51.210;2.934;2023-07-22T09:29:33;10.15;;;4.20;;
18732;SDS011;9495;51.210;2.934;2023-07-22T09:32:02;9.95;;;4.15;;
18732;SDS011;9495;51.210;2.934;2023-07-22T09:34:31;16.65;;;3.85;;
18732;SDS011;9495;51.210;2.934;2023-07-22T09:37:00;8.43;;;3.20;;
18732;SDS011;9495;51.210;2.934;2023-07-22T09:39:30;7.75;;;3.30;;
18732;SDS011;9495;51.210;2.934;2023-07-22T09:42:00;9.85;;;2.75;;
18732;SDS011;9495;51.210;2.934;2023-07-22T09:44:30;7.18;;;2.75;;
18732;SDS011;9495;51.210;2.934;2023-07-22T09:47:03;6.63;;;2.90;;
18732;SDS011;9495;51.210;2.934;2023-07-22T09:49:39;5.47;;;2.50;;
18732;SDS011;9495;51.210;2.934;2023-07-22T09:52:09;4.68;;;2.20;;
18732;SDS011;9495;51.210;2.934;2023-07-22T09:54:46;15.55;;;2.88;;
18732;SDS011;9495;51.210;2.934;2023-07-22T09:57:17;17.10;;;3.35;;
18732;SDS011;9495;51.210;2.934;2023-07-22T09:59:46;6.35;;;2.50;;
18732;SDS011;9495;51.210;2.934;2023-07-22T10:02:17;3.60;;;2.47;;
18732;SDS011;9495;51.210;2.934;2023-07-22T10:04:48;7.05;;;3.30;;
18732;SDS011;9495;51.210;2.934;2023-07-22T10:07:20;6.93;;;2.67;;
18732;SDS011;9495;51.210;2.934;2023-07-22T10:09:49;7.55;;;3.33;;
18732;SDS011;9495;51.210;2.934;2023-07-22T10:12:23;8.90;;;2.90;;
18732;SDS011;9495;51.210;2.934;2023-07-22T10:14:52;6.97;;;2.90;;
18732;SDS011;9495;51.210;2.934;2023-07-22T10:17:21;7.60;;;3.03;;
18732;SDS011;9495;51.210;2.934;2023-07-22T10:19:50;7.20;;;3.00;;
18732;SDS011;9495;51.210;2.934;2023-07-22T10:22:19;6.18;;;3.17;;
18732;SDS011;9495;51.210;2.934;2023-07-22T10:24:49;5.18;;;2.90;;
18732;SDS011;9495;51.210;2.934;2023-07-22T10:27:20;4.88;;;2.80;;
18732;SDS011;9495;51.210;2.934;2023-07-22T10:29:51;6.97;;;2.97;;
18732;SDS011;9495;51.210;2.934;2023-07-22T10:32:21;5.75;;;2.50;;
18732;SDS011;9495;51.210;2.934;2023-07-22T10:34:50;6.32;;;2.60;;
18732;SDS011;9495;51.210;2.934;2023-07-22T10:37:19;4.40;;;2.40;;
18732;SDS011;9495;51.210;2.934;2023-07-22T10:39:51;7.90;;;2.70;;
18732;SDS011;9495;51.210;2.934;2023-07-22T10:42:25;3.28;;;2.05;;
18732;SDS011;9495;51.210;2.934;2023-07-22T10:44:53;7.63;;;3.17;;
18732;SDS011;9495;51.210;2.934;2023-07-22T10:47:31;4.07;;;2.30;;
18732;SDS011;9495;51.210;2.934;2023-07-22T10:50:09;4.65;;;2.20;;
18732;SDS011;9495;51.210;2.934;2023-07-22T10:52:39;6.85;;;2.00;;
18732;SDS011;9495;51.210;2.934;2023-07-22T10:55:16;8.80;;;2.50;;
18732;SDS011;9495;51.210;2.934;2023-07-22T10:57:49;6.55;;;2.90;;
18732;SDS011;9495;51.210;2.934;2023-07-22T11:00:20;6.70;;;2.60;;
18732;SDS011;9495;51.210;2.934;2023-07-22T11:05:48;6.20;;;3.22;;
18732;SDS011;9495;51.210;2.934;2023-07-22T11:11:03;8.45;;;2.90;;
18732;SDS011;9495;51.210;2.934;2023-07-22T11:13:36;6.03;;;2.42;;
18732;SDS011;9495;51.210;2.934;2023-07-22T11:16:09;6.07;;;2.72;;
18732;SDS011;9495;51.210;2.934;2023-07-22T11:18:39;7.65;;;2.75;;
18732;SDS011;9495;51.210;2.934;2023-07-22T11:21:09;6.93;;;2.58;;
18732;SDS011;9495;51.210;2.934;2023-07-22T11:23:37;7.22;;;2.08;;
18732;SDS011;9495;51.210;2.934;2023-07-22T11:26:06;5.55;;;2.45;;
18732;SDS011;9495;51.210;2.934;2023-07-22T11:28:36;5.45;;;2.20;;
18732;SDS011;9495;51.210;2.934;2023-07-22T11:31:04;7.80;;;2.35;;
18732;SDS011;9495;51.210;2.934;2023-07-22T11:33:42;6.32;;;2.05;;
18732;SDS011;9495;51.210;2.934;2023-07-22T11:36:13;4.07;;;1.83;;
18732;SDS011;9495;51.210;2.934;2023-07-22T11:38:41;6.05;;;2.22;;
18732;SDS011;9495;51.210;2.934;2023-07-22T11:41:10;5.00;;;2.28;;
18732;SDS011;9495;51.210;2.934;2023-07-22T11:43:40;5.75;;;1.70;;
18732;SDS011;9495;51.210;2.934;2023-07-22T11:46:09;2.95;;;1.45;;
18732;SDS011;9495;51.210;2.934;2023-07-22T11:48:37;4.78;;;1.65;;
18732;SDS011;9495;51.210;2.934;2023-07-22T11:51:06;3.15;;;1.45;;
18732;SDS011;9495;51.210;2.934;2023-07-22T11:53:35;4.40;;;1.60;;
18732;SDS011;9495;51.210;2.934;2023-07-22T11:56:04;3.75;;;1.80;;
18732;SDS011;9495;51.210;2.934;2023-07-22T11:58:33;4.38;;;1.38;;
18732;SDS011;9495;51.210;2.934;2023-07-22T12:01:03;5.03;;;1.83;;
18732;SDS011;9495;51.210;2.934;2023-07-22T12:03:34;3.85;;;1.70;;
18732;SDS011;9495;51.210;2.934;2023-07-22T12:06:03;5.53;;;1.55;;
18732;SDS011;9495;51.210;2.934;2023-07-22T12:08:33;5.65;;;1.80;;
18732;SDS011;9495;51.210;2.934;2023-07-22T12:11:02;5.88;;;1.67;;
18732;SDS011;9495;51.210;2.934;2023-07-22T12:13:35;4.13;;;1.60;;
18732;SDS011;9495;51.210;2.934;2023-07-22T12:16:06;4.30;;;1.52;;
18732;SDS011;9495;51.210;2.934;2023-07-22T12:18:41;3.55;;;1.30;;
18732;SDS011;9495;51.210;2.934;2023-07-22T12:21:09;8.32;;;1.85;;
18732;SDS011;9495;51.210;2.934;2023-07-22T12:23:38;5.38;;;2.28;;
18732;SDS011;9495;51.210;2.934;2023-07-22T12:26:07;2.25;;;1.60;;
18732;SDS011;9495;51.210;2.934;2023-07-22T12:28:35;4.05;;;1.70;;
18732;SDS011;9495;51.210;2.934;2023-07-22T12:31:05;2.88;;;1.60;;
18732;SDS011;9495;51.210;2.934;2023-07-22T12:33:34;2.97;;;1.60;;
18732;SDS011;9495;51.210;2.934;2023-07-22T12:36:02;5.10;;;1.80;;
18732;SDS011;9495;51.210;2.934;2023-07-22T12:38:31;7.72;;;1.88;;
18732;SDS011;9495;51.210;2.934;2023-07-22T12:41:00;4.72;;;2.08;;
18732;SDS011;9495;51.210;2.934;2023-07-22T12:43:29;5.78;;;2.03;;
18732;SDS011;9495;51.210;2.934;2023-07-22T12:45:58;3.33;;;1.90;;
18732;SDS011;9495;51.210;2.934;2023-07-22T12:48:27;4.78;;;1.73;;
18732;SDS011;9495;51.210;2.934;2023-07-22T12:50:56;5.10;;;1.58;;
18732;SDS011;9495;51.210;2.934;2023-07-22T12:53:25;4.63;;;2.20;;
18732;SDS011;9495;51.210;2.934;2023-07-22T12:55:57;8.15;;;1.92;;
18732;SDS011;9495;51.210;2.934;2023-07-22T12:58:26;6.50;;;2.15;;
18732;SDS011;9495;51.210;2.934;2023-07-22T13:00:54;7.18;;;2.30;;
18732;SDS011;9495;51.210;2.934;2023-07-22T13:03:23;9.25;;;2.17;;
18732;SDS011;9495;51.210;2.934;2023-07-22T13:05:53;8.02;;;2.13;;
18732;SDS011;9495;51.210;2.934;2023-07-22T13:08:21;7.15;;;2.58;;
18732;SDS011;9495;51.210;2.934;2023-07-22T13:10:49;4.07;;;2.10;;
18732;SDS011;9495;51.210;2.934;2023-07-22T13:13:18;8.65;;;2.20;;
18732;SDS011;9495;51.210;2.934;2023-07-22T13:15:47;8.05;;;2.53;;
18732;SDS011;9495;51.210;2.934;2023-07-22T13:18:15;6.55;;;2.22;;
18732;SDS011;9495;51.210;2.934;2023-07-22T13:20:44;7.25;;;2.42;;
18732;SDS011;9495;51.210;2.934;2023-07-22T13:23:14;10.65;;;2.20;;
18732;SDS011;9495;51.210;2.934;2023-07-22T13:25:42;10.30;;;2.70;;
18732;SDS011;9495;51.210;2.934;2023-07-22T13:28:11;7.22;;;2.42;;
18732;SDS011;9495;51.210;2.934;2023-07-22T13:30:39;8.10;;;2.42;;
18732;SDS011;9495;51.210;2.934;2023-07-22T13:33:08;5.93;;;1.63;;
18732;SDS011;9495;51.210;2.934;2023-07-22T13:35:37;7.03;;;1.92;;
18732;SDS011;9495;51.210;2.934;2023-07-22T13:38:05;5.03;;;1.88;;
18732;SDS011;9495;51.210;2.934;2023-07-22T13:40:35;5.30;;;2.00;;
18732;SDS011;9495;51.210;2.934;2023-07-22T13:43:04;8.73;;;2.58;;
18732;SDS011;9495;51.210;2.934;2023-07-22T13:45:32;9.10;;;2.33;;
18732;SDS011;9495;51.210;2.934;2023-07-22T13:48:01;6.35;;;2.17;;
18732;SDS011;9495;51.210;2.934;2023-07-22T13:50:30;6.32;;;2.03;;
18732;SDS011;9495;51.210;2.934;2023-07-22T13:53:01;4.45;;;1.98;;
18732;SDS011;9495;51.210;2.934;2023-07-22T13:55:30;5.45;;;2.22;;
18732;SDS011;9495;51.210;2.934;2023-07-22T13:58:00;5.72;;;1.60;;
18732;SDS011;9495;51.210;2.934;2023-07-22T14:00:28;4.65;;;1.98;;
18732;SDS011;9495;51.210;2.934;2023-07-22T14:02:57;5.00;;;2.15;;
18732;SDS011;9495;51.210;2.934;2023-07-22T14:05:25;3.85;;;1.75;;
18732;SDS011;9495;51.210;2.934;2023-07-22T14:07:54;3.53;;;1.88;;
18732;SDS011;9495;51.210;2.934;2023-07-22T14:10:22;2.83;;;1.15;;
18732;SDS011;9495;51.210;2.934;2023-07-22T14:12:51;5.18;;;1.60;;
18732;SDS011;9495;51.210;2.934;2023-07-22T14:15:21;6.13;;;1.90;;
18732;SDS011;9495;51.210;2.934;2023-07-22T14:17:49;11.02;;;2.25;;
18732;SDS011;9495;51.210;2.934;2023-07-22T14:20:18;8.63;;;2.10;;
18732;SDS011;9495;51.210;2.934;2023-07-22T14:22:46;4.72;;;1.98;;
18732;SDS011;9495;51.210;2.934;2023-07-22T14:25:16;3.67;;;1.90;;
18732;SDS011;9495;51.210;2.934;2023-07-22T14:27:46;8.95;;;1.83;;
18732;SDS011;9495;51.210;2.934;2023-07-22T14:30:14;3.72;;;2.00;;
18732;SDS011;9495;51.210;2.934;2023-07-22T14:32:44;3.17;;;2.15;;
18732;SDS011;9495;51.210;2.934;2023-07-22T14:35:13;3.67;;;1.83;;
18732;SDS011;9495;51.210;2.934;2023-07-22T14:37:41;6.50;;;2.28;;
18732;SDS011;9495;51.210;2.934;2023-07-22T14:40:10;5.70;;;2.10;;
18732;SDS011;9495;51.210;2.934;2023-07-22T14:42:39;8.70;;;2.00;;
18732;SDS011;9495;51.210;2.934;2023-07-22T14:45:08;5.25;;;2.22;;
18732;SDS011;9495;51.210;2.934;2023-07-22T14:47:37;4.93;;;2.03;;
18732;SDS011;9495;51.210;2.934;2023-07-22T14:50:07;4.63;;;2.20;;
18732;SDS011;9495;51.210;2.934;2023-07-22T14:52:36;4.05;;;2.25;;
18732;SDS011;9495;51.210;2.934;2023-07-22T14:55:05;4.03;;;2.13;;
18732;SDS011;9495;51.210;2.934;2023-07-22T14:57:33;3.35;;;1.90;;
18732;SDS011;9495;51.210;2.934;2023-07-22T15:00:01;8.60;;;2.80;;
18732;SDS011;9495;51.210;2.934;2023-07-22T15:02:30;7.90;;;2.20;;
18732;SDS011;9495;51.210;2.934;2023-07-22T15:04:59;5.28;;;2.10;;
18732;SDS011;9495;51.210;2.934;2023-07-22T15:07:29;4.28;;;1.80;;